Time;durP1;ratioP1;P1;durP2;ratioP2;P2;SDS_P1;SDS_P2;PMS_P1;PMS_P2;Temp;Humidity;BMP_temperature;BMP_pressure;BME280_temperature;BME280_humidity;BME280_pressure;Samples;Min_cycle;Max_cycle;Signal;HPM_P1;HPM_P2
2023/01/03 00:01:20;;;;;;;9.85;4.22;;;5.60;99.90;;;;;;5053071;28;20473;-33
2023/01/03 00:03:46;;;;;;;6.80;3.88;;;5.70;99.90;;;;;;5068780;28;20025;-42
2023/01/03 00:06:26;;;;;;;8.65;3.53;;;5.70;99.90;;;;;;5071459;28;20036;-40
2023/01/03 00:08:53;;;;;;;5.40;3.95;;;5.70;99.90;;;;;;5074302;28;20052;-38
2023/01/03 00:14:07;;;;;;;6.82;3.67;;;5.70;99.90;;;;;;5074295;28;20054;-39
2023/01/03 00:16:33;;;;;;;5.55;3.83;;;5.60;99.90;;;;;;5074320;28;20717;-39
2023/01/03 00:18:59;;;;;;;6.45;4.13;;;5.70;99.90;;;;;;5073096;28;20025;-39
2023/01/03 00:21:24;;;;;;;9.60;3.83;;;5.70;99.90;;;;;;5075223;28;20031;-39
2023/01/03 00:23:50;;;;;;;10.80;4.07;;;5.70;99.90;;;;;;5074745;28;20020;-39
2023/01/03 00:26:15;;;;;;;11.68;4.55;;;5.70;99.90;;;;;;5074929;28;20423;-39
2023/01/03 00:28:42;;;;;;;10.23;4.32;;;5.70;99.90;;;;;;5075370;28;20025;-39
2023/01/03 00:31:10;;;;;;;6.18;3.60;;;5.80;99.90;;;;;;5073294;28;20387;-39
2023/01/03 00:33:37;;;;;;;10.57;4.75;;;5.70;99.90;;;;;;5075262;28;20476;-43
2023/01/03 00:36:05;;;;;;;8.77;3.72;;;5.70;99.90;;;;;;5073804;28;20082;-38
2023/01/03 00:38:30;;;;;;;5.68;3.40;;;5.70;99.90;;;;;;5073858;28;20029;-40
2023/01/03 00:41:11;;;;;;;8.05;4.63;;;5.80;99.90;;;;;;5073144;28;20097;-48
2023/01/03 00:43:38;;;;;;;6.97;4.00;;;5.80;99.90;;;;;;5074437;28;20016;-42
2023/01/03 00:46:05;;;;;;;7.35;4.63;;;5.80;99.90;;;;;;5074334;28;20023;-52
2023/01/03 00:48:31;;;;;;;8.13;3.85;;;5.80;99.90;;;;;;5074944;28;20513;-39
2023/01/03 00:51:03;;;;;;;10.57;4.72;;;5.80;99.90;;;;;;5075332;28;20028;-38
2023/01/03 00:53:28;;;;;;;7.10;4.25;;;5.80;99.90;;;;;;5075328;28;20506;-39
2023/01/03 00:55:54;;;;;;;6.50;3.92;;;5.90;99.90;;;;;;5075228;28;20028;-39
2023/01/03 00:58:20;;;;;;;11.98;4.35;;;5.90;99.90;;;;;;5074763;28;20044;-38
2023/01/03 01:00:46;;;;;;;7.03;4.30;;;6.00;99.90;;;;;;5048476;28;20033;-39
2023/01/03 01:03:11;;;;;;;6.15;4.28;;;5.90;99.90;;;;;;5059106;28;20107;-39
2023/01/03 01:05:37;;;;;;;6.63;3.65;;;6.00;99.90;;;;;;5074322;28;20020;-40
2023/01/03 01:08:02;;;;;;;8.30;3.90;;;5.90;99.90;;;;;;5073594;28;20024;-39
2023/01/03 01:10:28;;;;;;;8.48;3.95;;;5.90;99.90;;;;;;5074253;28;20480;-39
2023/01/03 01:12:55;;;;;;;9.45;4.80;;;5.80;99.90;;;;;;5073286;28;20032;-43
2023/01/03 01:15:21;;;;;;;10.20;4.22;;;5.80;99.90;;;;;;5072591;28;20025;-36
2023/01/03 01:17:47;;;;;;;7.03;3.85;;;5.70;99.90;;;;;;5071573;28;20074;-38
2023/01/03 01:20:13;;;;;;;7.15;4.03;;;5.70;99.90;;;;;;5074390;28;20036;-39
2023/01/03 01:22:38;;;;;;;9.20;4.03;;;5.70;99.90;;;;;;5073339;28;20104;-39
2023/01/03 01:25:04;;;;;;;7.07;3.92;;;5.70;99.90;;;;;;5073756;28;20040;-39
2023/01/03 01:27:49;;;;;;;7.93;3.83;;;5.60;99.90;;;;;;5074381;28;20024;-39
2023/01/03 01:30:14;;;;;;;7.30;3.95;;;5.60;99.90;;;;;;5074588;28;20071;-40
2023/01/03 01:32:40;;;;;;;4.55;3.45;;;5.50;99.90;;;;;;5074129;28;20029;-39
2023/01/03 01:35:05;;;;;;;6.68;3.15;;;5.50;99.90;;;;;;5074524;28;20073;-40
2023/01/03 01:37:31;;;;;;;11.45;4.25;;;5.50;99.90;;;;;;5074200;28;20032;-39
2023/01/03 01:39:57;;;;;;;5.72;3.78;;;5.50;99.90;;;;;;5074292;28;20024;-38
2023/01/03 01:45:13;;;;;;;8.10;3.90;;;5.40;99.90;;;;;;5074566;28;20438;-42
2023/01/03 01:48:04;;;;;;;6.22;3.70;;;5.40;99.90;;;;;;5074385;28;20017;-41
2023/01/03 01:50:47;;;;;;;5.57;3.65;;;5.40;99.90;;;;;;5072858;28;20032;-54
2023/01/03 01:53:28;;;;;;;5.43;3.40;;;5.30;99.90;;;;;;5074127;28;20032;-39
2023/01/03 01:56:00;;;;;;;7.63;4.75;;;5.30;99.90;;;;;;5074037;28;20029;-38
2023/01/03 01:58:32;;;;;;;6.80;4.05;;;5.30;99.90;;;;;;5074113;28;20020;-39
2023/01/03 02:00:58;;;;;;;7.70;4.07;;;5.30;99.90;;;;;;5072130;28;20056;-38
2023/01/03 02:03:24;;;;;;;6.05;4.03;;;5.30;99.90;;;;;;5072854;28;20017;-54
2023/01/03 02:05:52;;;;;;;10.20;4.65;;;5.30;99.90;;;;;;5073676;28;20031;-39
2023/01/03 02:08:18;;;;;;;9.57;4.93;;;5.30;99.90;;;;;;5073917;28;20027;-39
2023/01/03 02:11:16;;;;;;;9.88;4.55;;;5.30;99.90;;;;;;5073106;28;20094;-40
2023/01/03 02:13:49;;;;;;;8.32;4.53;;;5.20;99.90;;;;;;5072620;28;20085;-39
2023/01/03 02:16:28;;;;;;;11.10;5.07;;;5.20;99.90;;;;;;5071568;28;20802;-39
2023/01/03 02:19:01;;;;;;;13.07;5.65;;;5.20;99.90;;;;;;5070801;28;20119;-54
2023/01/03 02:21:37;;;;;;;10.63;5.63;;;5.10;99.90;;;;;;5073494;28;20028;-52
2023/01/03 02:24:11;;;;;;;13.52;5.25;;;5.10;99.90;;;;;;5072276;28;20461;-59
2023/01/03 02:27:07;;;;;;;9.40;5.72;;;5.10;99.90;;;;;;5072844;28;20028;-56
2023/01/03 02:29:46;;;;;;;12.07;6.10;;;5.10;99.90;;;;;;5071303;28;20512;-40
2023/01/03 02:32:17;;;;;;;14.07;7.05;;;5.20;99.90;;;;;;5071391;28;20480;-38
2023/01/03 02:35:03;;;;;;;11.02;5.65;;;5.20;99.90;;;;;;5071976;28;20461;-39
2023/01/03 02:37:53;;;;;;;15.70;6.72;;;5.20;99.90;;;;;;5071095;28;20032;-39
2023/01/03 02:40:33;;;;;;;14.57;7.65;;;5.10;99.90;;;;;;5072449;28;20530;-38
2023/01/03 02:43:08;;;;;;;13.25;7.30;;;5.20;99.90;;;;;;5068303;28;20443;-39
2023/01/03 02:46:03;;;;;;;15.93;7.22;;;5.20;99.90;;;;;;5072478;28;20034;-39
2023/01/03 02:48:57;;;;;;;20.65;8.07;;;5.30;99.90;;;;;;5036306;28;20504;-42
2023/01/03 02:51:33;;;;;;;17.13;8.00;;;5.40;99.90;;;;;;5057531;28;20423;-40
2023/01/03 02:54:02;;;;;;;17.02;8.50;;;5.50;99.90;;;;;;5073144;28;20066;-43
2023/01/03 02:56:38;;;;;;;20.75;9.23;;;5.60;99.90;;;;;;5073132;28;20078;-38
2023/01/03 02:59:10;;;;;;;31.40;10.00;;;5.60;99.90;;;;;;5071331;28;20039;-42
2023/01/03 03:01:43;;;;;;;22.33;9.70;;;5.60;99.90;;;;;;5072195;28;20028;-41
2023/01/03 03:04:10;;;;;;;26.83;9.68;;;5.70;99.90;;;;;;5073145;28;20086;-41
2023/01/03 03:07:01;;;;;;;24.70;11.23;;;5.80;99.90;;;;;;5072198;28;20032;-42
2023/01/03 03:15:22;;;;;;;28.07;11.20;;;5.80;99.90;;;;;;5055138;28;20040;-39
2023/01/03 03:17:54;;;;;;;22.25;11.27;;;5.80;99.90;;;;;;5071314;28;20286;-39
2023/01/03 03:26:01;;;;;;;26.23;10.60;;;5.60;99.90;;;;;;5054562;28;20547;-33
2023/01/03 03:28:34;;;;;;;26.30;10.80;;;5.60;99.90;;;;;;5072801;28;20519;-34
2023/01/03 03:34:06;;;;;;;29.20;11.60;;;5.50;99.90;;;;;;5072630;28;20071;-30
2023/01/03 03:36:38;;;;;;;28.75;12.90;;;5.50;99.90;;;;;;5072058;28;20438;-35
2023/01/03 03:44:58;;;;;;;29.77;12.98;;;5.60;99.90;;;;;;5071462;28;20496;-29
2023/01/03 03:45:02;;;;;;;25.00;11.65;;;5.60;99.90;;;;;;5073878;28;20106;-29
2023/01/03 03:47:42;;;;;;;23.75;11.13;;;5.60;99.90;;;;;;5072796;28;20093;-36
2023/01/03 03:50:19;;;;;;;22.95;11.10;;;5.60;99.90;;;;;;5075122;28;20093;-30
2023/01/03 03:52:48;;;;;;;25.42;9.98;;;5.50;99.90;;;;;;5076444;28;20437;-31
2023/01/03 03:55:22;;;;;;;24.52;11.35;;;5.50;99.90;;;;;;5075643;28;20063;-31
2023/01/03 03:57:53;;;;;;;25.75;11.75;;;5.40;99.90;;;;;;5075739;28;20081;-30
2023/01/03 04:00:24;;;;;;;24.52;10.30;;;5.30;99.90;;;;;;5074800;28;20426;-31
2023/01/03 04:02:50;;;;;;;25.02;12.55;;;5.30;99.90;;;;;;5071009;28;20017;-31
2023/01/03 04:05:21;;;;;;;23.17;10.38;;;5.30;99.90;;;;;;5073423;28;20476;-30
2023/01/03 04:07:48;;;;;;;24.13;11.10;;;5.20;99.90;;;;;;5073633;28;20091;-31
2023/01/03 04:10:18;;;;;;;22.42;11.10;;;5.20;99.90;;;;;;5074490;28;20498;-31
2023/01/03 04:12:48;;;;;;;21.77;11.13;;;5.20;99.90;;;;;;5071762;28;20036;-33
2023/01/03 04:15:15;;;;;;;23.17;10.70;;;5.20;99.90;;;;;;5075517;28;20388;-30
2023/01/03 04:17:41;;;;;;;24.40;10.52;;;5.20;99.90;;;;;;5074333;28;20436;-31
2023/01/03 04:20:07;;;;;;;20.98;11.13;;;5.20;99.90;;;;;;5075043;28;20511;-30
2023/01/03 04:22:33;;;;;;;22.77;10.15;;;5.20;99.90;;;;;;5073298;28;20060;-35
2023/01/03 04:24:58;;;;;;;21.25;9.52;;;5.30;99.90;;;;;;5073941;28;20482;-30
2023/01/03 04:27:24;;;;;;;19.15;10.77;;;5.30;99.90;;;;;;5073358;28;20107;-33
2023/01/03 04:29:50;;;;;;;19.98;10.32;;;5.20;99.90;;;;;;5073857;28;20028;-50
2023/01/03 04:32:15;;;;;;;19.27;10.95;;;5.20;99.90;;;;;;5074602;28;20025;-40
2023/01/03 04:34:41;;;;;;;23.98;10.55;;;5.20;99.90;;;;;;5074619;28;20040;-39
2023/01/03 04:37:06;;;;;;;22.80;10.15;;;5.20;99.90;;;;;;5073905;28;20419;-40
2023/01/03 04:39:32;;;;;;;18.25;9.95;;;5.20;99.90;;;;;;5074185;28;20472;-40
2023/01/03 04:42:00;;;;;;;23.30;10.18;;;5.20;99.90;;;;;;5071633;28;20031;-38
2023/01/03 04:44:26;;;;;;;23.05;9.98;;;5.10;99.90;;;;;;5074230;28;20017;-41
2023/01/03 04:46:52;;;;;;;20.83;10.93;;;5.10;99.90;;;;;;5073076;28;20477;-42
2023/01/03 04:49:17;;;;;;;28.10;11.00;;;5.10;99.90;;;;;;5075023;28;20028;-40
2023/01/03 04:51:43;;;;;;;22.60;10.85;;;5.00;99.90;;;;;;5074051;28;20020;-40
2023/01/03 04:54:08;;;;;;;26.33;11.73;;;5.00;99.90;;;;;;5072363;28;20029;-42
2023/01/03 04:56:36;;;;;;;30.67;10.65;;;5.00;99.90;;;;;;5075414;28;20017;-44
2023/01/03 04:59:02;;;;;;;20.40;10.75;;;4.90;99.90;;;;;;5075112;28;20028;-40
2023/01/03 05:01:28;;;;;;;24.08;11.30;;;4.90;99.90;;;;;;5075270;28;20017;-41
2023/01/03 05:04:00;;;;;;;19.73;10.32;;;4.80;99.90;;;;;;5074154;28;20020;-40
2023/01/03 05:06:27;;;;;;;18.65;10.00;;;4.80;99.90;;;;;;5072813;28;20083;-38
2023/01/03 05:08:53;;;;;;;26.10;11.10;;;4.80;99.90;;;;;;5074813;28;20016;-39
2023/01/03 05:11:19;;;;;;;19.35;10.20;;;4.70;99.90;;;;;;5073511;28;20147;-39
2023/01/03 05:13:44;;;;;;;23.30;10.15;;;4.70;99.90;;;;;;5074906;28;20025;-40
2023/01/03 05:16:12;;;;;;;20.80;10.13;;;4.80;99.90;;;;;;5075015;28;20373;-42
2023/01/03 05:18:38;;;;;;;20.90;10.00;;;4.80;99.90;;;;;;5074245;28;20429;-41
2023/01/03 05:26:41;;;;;;;22.50;10.27;;;4.80;99.90;;;;;;5074186;28;20545;-40
2023/01/03 05:29:07;;;;;;;20.85;10.45;;;4.80;99.90;;;;;;5074821;28;20392;-41
2023/01/03 05:31:33;;;;;;;23.02;10.35;;;4.80;99.90;;;;;;5074669;28;20490;-46
2023/01/03 05:33:59;;;;;;;22.42;10.20;;;4.80;99.90;;;;;;5073343;28;20021;-42
2023/01/03 05:36:25;;;;;;;17.10;10.45;;;4.80;99.90;;;;;;5074674;28;20456;-39
2023/01/03 05:38:51;;;;;;;25.10;10.13;;;4.80;99.90;;;;;;5074460;28;20021;-40
2023/01/03 05:41:58;;;;;;;29.30;11.18;;;4.80;99.90;;;;;;5074216;28;20529;-34
2023/01/03 05:44:05;;;;;;;23.30;10.85;;;4.80;99.90;;;;;;5073051;28;20024;-32
2023/01/03 05:46:31;;;;;;;25.00;9.82;;;4.80;99.90;;;;;;5073150;28;20037;-33
2023/01/03 05:48:57;;;;;;;20.60;10.65;;;4.80;99.90;;;;;;5074175;28;20103;-33
2023/01/03 05:51:23;;;;;;;26.65;11.52;;;4.80;99.90;;;;;;5074167;28;20078;-38
2023/01/03 05:53:49;;;;;;;30.00;10.48;;;4.80;99.90;;;;;;5073350;28;20104;-38
2023/01/03 05:56:15;;;;;;;21.95;9.93;;;4.80;99.90;;;;;;5072519;28;20142;-34
2023/01/03 05:58:42;;;;;;;19.10;10.40;;;4.80;99.90;;;;;;5070575;28;20040;-32
2023/01/03 06:01:09;;;;;;;18.88;9.40;;;4.70;99.90;;;;;;5071266;28;20439;-34
2023/01/03 06:03:34;;;;;;;18.85;10.13;;;4.70;99.90;;;;;;5073249;28;20078;-65
2023/01/03 06:06:08;;;;;;;22.48;11.38;;;4.70;99.90;;;;;;5072102;28;20020;-40
2023/01/03 06:08:35;;;;;;;20.02;9.75;;;4.70;99.90;;;;;;5072648;28;20039;-39
2023/01/03 06:11:05;;;;;;;24.20;9.07;;;4.70;99.90;;;;;;5073642;28;20028;-34
2023/01/03 06:13:31;;;;;;;20.75;9.43;;;4.70;99.90;;;;;;5073965;28;20420;-31
2023/01/03 06:18:47;;;;;;;25.83;9.60;;;4.70;99.90;;;;;;5071898;28;20085;-43
2023/01/03 06:21:12;;;;;;;21.92;10.23;;;4.80;99.90;;;;;;5073335;28;20434;-38
2023/01/03 06:23:41;;;;;;;23.48;9.00;;;4.90;99.90;;;;;;5073471;28;20376;-43
2023/01/03 06:26:06;;;;;;;17.05;8.75;;;4.90;99.90;;;;;;5071693;28;20040;-34
2023/01/03 06:28:32;;;;;;;17.02;7.93;;;4.90;99.90;;;;;;5061513;28;20022;-31
2023/01/03 06:30:57;;;;;;;20.65;9.27;;;4.90;99.90;;;;;;5074182;28;20454;-35
2023/01/03 06:33:23;;;;;;;20.08;8.98;;;5.00;99.90;;;;;;5073340;28;20021;-35
2023/01/03 06:35:49;;;;;;;18.70;9.88;;;5.10;99.90;;;;;;5071037;28;20495;-37
2023/01/03 06:38:14;;;;;;;17.92;9.70;;;5.20;99.90;;;;;;5073225;28;20082;-32
2023/01/03 06:40:49;;;;;;;21.00;9.38;;;5.30;99.90;;;;;;5073161;28;20029;-36
2023/01/03 06:43:14;;;;;;;18.08;8.70;;;5.40;99.90;;;;;;5073237;28;20028;-33
2023/01/03 06:53:58;;;;;;;24.45;9.05;;;5.40;99.90;;;;;;5072991;28;20093;-33
2023/01/03 06:56:24;;;;;;;25.88;10.20;;;5.50;99.90;;;;;;5072073;28;20024;-33
2023/01/03 06:58:50;;;;;;;21.73;8.95;;;5.50;99.90;;;;;;5073028;28;20469;-36
2023/01/03 07:01:17;;;;;;;18.23;8.88;;;5.50;99.90;;;;;;5072187;28;20043;-41
2023/01/03 07:03:43;;;;;;;20.30;9.90;;;5.50;99.90;;;;;;5072560;28;20496;-42
2023/01/03 07:06:08;;;;;;;24.45;9.60;;;5.50;99.90;;;;;;5072102;28;20019;-42
2023/01/03 07:08:34;;;;;;;25.60;8.98;;;5.50;99.90;;;;;;5072962;28;20021;-41
2023/01/03 07:11:00;;;;;;;14.05;8.02;;;5.60;99.90;;;;;;5072862;28;20063;-40
2023/01/03 07:16:17;;;;;;;19.65;8.52;;;5.70;99.90;;;;;;5071742;28;20035;-33
2023/01/03 07:18:43;;;;;;;17.20;9.00;;;5.60;99.90;;;;;;5070999;28;20597;-31
2023/01/03 07:21:09;;;;;;;18.20;7.63;;;5.60;99.90;;;;;;5072237;28;20114;-32
2023/01/03 07:23:36;;;;;;;15.73;8.60;;;5.60;99.90;;;;;;5070970;28;20056;-34
2023/01/03 07:26:01;;;;;;;20.63;9.00;;;5.60;99.90;;;;;;5070091;28;20032;-42
2023/01/03 07:28:27;;;;;;;18.35;8.70;;;5.60;99.90;;;;;;5071198;28;20484;-45
2023/01/03 07:31:02;;;;;;;16.42;8.18;;;5.60;99.90;;;;;;5069942;28;20024;-41
2023/01/03 07:33:28;;;;;;;18.90;8.25;;;5.70;99.90;;;;;;5072741;28;20508;-39
2023/01/03 07:36:24;;;;;;;13.32;7.57;;;5.70;99.90;;;;;;5072748;28;20143;-40
2023/01/03 07:38:49;;;;;;;15.95;7.70;;;5.80;99.90;;;;;;5067936;28;20523;-61
2023/01/03 07:41:16;;;;;;;15.98;7.47;;;5.80;99.90;;;;;;5071803;28;20013;-41
2023/01/03 07:43:45;;;;;;;20.08;8.98;;;5.80;99.90;;;;;;5072545;28;20107;-42
2023/01/03 07:46:22;;;;;;;19.42;7.88;;;5.80;99.90;;;;;;5070585;28;20017;-42
2023/01/03 07:48:53;;;;;;;17.50;7.15;;;5.80;99.90;;;;;;5061191;28;20025;-43
2023/01/03 07:51:20;;;;;;;16.60;7.30;;;5.90;99.90;;;;;;5052522;28;20112;-43
2023/01/03 07:53:49;;;;;;;14.55;8.45;;;6.00;99.90;;;;;;5071007;28;20099;-38
2023/01/03 07:56:18;;;;;;;15.07;7.68;;;5.90;99.90;;;;;;5071665;28;20020;-43
2023/01/03 07:58:45;;;;;;;13.93;7.20;;;6.00;99.90;;;;;;5072084;28;20546;-41
2023/01/03 08:01:19;;;;;;;13.13;7.30;;;6.20;99.90;;;;;;5071223;28;20032;-40
2023/01/03 08:03:45;;;;;;;14.10;7.55;;;6.20;99.90;;;;;;5072357;28;20029;-41
2023/01/03 08:06:14;;;;;;;11.13;6.70;;;6.20;99.90;;;;;;5071577;28;20060;-44
2023/01/03 08:08:39;;;;;;;14.02;7.22;;;6.00;99.90;;;;;;5072349;28;20029;-46
2023/01/03 08:13:50;;;;;;;20.25;9.07;;;5.90;99.90;;;;;;5072227;28;20043;-43
2023/01/03 08:16:17;;;;;;;16.77;8.20;;;5.90;99.90;;;;;;5071647;28;20468;-43
2023/01/03 08:18:44;;;;;;;21.20;8.20;;;5.90;99.90;;;;;;5067883;28;20025;-46
2023/01/03 08:21:12;;;;;;;16.52;7.85;;;6.00;99.90;;;;;;5064805;28;20041;-44
2023/01/03 08:23:38;;;;;;;;;;;6.00;99.90;;;;;;5070846;28;20467;-41
2023/01/03 08:26:05;;;;;;;18.35;8.07;;;6.00;99.90;;;;;;5074570;28;19908;-42
2023/01/03 08:28:32;;;;;;;16.83;7.10;;;6.00;99.90;;;;;;5076012;28;20094;-41
2023/01/03 08:31:01;;;;;;;15.95;7.47;;;6.10;99.90;;;;;;5075208;28;20488;-43
2023/01/03 08:33:30;;;;;;;16.40;8.02;;;6.20;99.90;;;;;;5075721;28;20032;-43
2023/01/03 08:36:02;;;;;;;14.60;7.47;;;6.20;99.90;;;;;;5071966;28;20488;-41
2023/01/03 08:38:33;;;;;;;11.40;7.18;;;6.30;99.90;;;;;;5069353;28;20480;-40
2023/01/03 08:41:00;;;;;;;18.00;8.15;;;6.30;99.90;;;;;;5069642;28;20111;-43
2023/01/03 08:43:29;;;;;;;20.20;8.10;;;6.40;99.90;;;;;;5073232;28;20065;-41
2023/01/03 08:45:55;;;;;;;16.38;7.30;;;6.50;99.90;;;;;;5073998;28;20021;-41
2023/01/03 08:48:22;;;;;;;18.90;8.38;;;6.50;99.90;;;;;;5073607;28;20644;-41
2023/01/03 08:50:48;;;;;;;18.30;8.65;;;6.60;99.90;;;;;;5070537;28;20047;-45
2023/01/03 08:53:14;;;;;;;20.55;9.95;;;6.60;99.90;;;;;;5069378;28;20033;-39
2023/01/03 08:55:39;;;;;;;27.83;9.25;;;6.60;99.90;;;;;;5075552;28;20025;-40
2023/01/03 08:58:08;;;;;;;15.68;8.98;;;6.60;99.90;;;;;;5070624;28;20036;-40
2023/01/03 09:00:35;;;;;;;17.55;8.50;;;6.60;99.90;;;;;;5072934;28;20037;-43
2023/01/03 09:03:01;;;;;;;16.60;8.40;;;6.70;99.90;;;;;;5074231;28;20472;-42
2023/01/03 09:05:27;;;;;;;17.67;9.00;;;6.80;99.90;;;;;;5070943;28;20024;-40
2023/01/03 09:07:54;;;;;;;22.05;9.80;;;6.80;99.90;;;;;;5075260;28;20470;-43
2023/01/03 09:10:20;;;;;;;24.20;10.57;;;6.80;99.90;;;;;;5072330;28;20453;-41
2023/01/03 09:12:46;;;;;;;26.98;10.45;;;6.80;99.90;;;;;;5073602;28;20020;-39
2023/01/03 09:15:11;;;;;;;24.63;11.20;;;6.80;99.90;;;;;;5073229;28;20047;-39
2023/01/03 09:17:41;;;;;;;28.45;10.40;;;6.90;99.90;;;;;;5070422;28;20028;-40
2023/01/03 09:20:07;;;;;;;32.28;12.07;;;6.90;99.90;;;;;;5070986;28;20028;-42
2023/01/03 09:22:32;;;;;;;30.80;11.60;;;6.90;99.90;;;;;;5072359;28;20053;-40
2023/01/03 09:24:58;;;;;;;25.25;11.00;;;7.00;99.90;;;;;;5072879;28;20038;-41
2023/01/03 09:27:24;;;;;;;31.60;11.52;;;6.90;99.90;;;;;;5072559;28;20421;-40
2023/01/03 09:29:51;;;;;;;29.15;13.18;;;6.90;99.90;;;;;;5071991;28;20024;-42
2023/01/03 09:32:17;;;;;;;30.77;12.15;;;6.90;99.90;;;;;;5071433;28;20036;-42
2023/01/03 09:34:43;;;;;;;30.17;11.90;;;6.90;99.90;;;;;;5072805;28;20086;-36
2023/01/03 09:37:11;;;;;;;33.63;13.32;;;7.00;99.90;;;;;;5066379;28;20374;-46
2023/01/03 09:39:39;;;;;;;41.28;12.82;;;7.00;99.90;;;;;;5068703;28;20064;-40
2023/01/03 09:44:52;;;;;;;27.85;11.43;;;7.10;99.90;;;;;;5054503;28;20051;-42
2023/01/03 09:47:24;;;;;;;31.95;11.63;;;7.20;99.90;;;;;;5070624;28;20031;-42
2023/01/03 09:49:52;;;;;;;27.08;11.38;;;7.20;99.90;;;;;;5054350;28;20532;-39
2023/01/03 10:03:42;;;;;;;38.97;12.98;;;7.20;99.90;;;;;;5070531;28;20082;-42
2023/01/03 10:04:45;;;;;;;32.30;12.80;;;7.40;99.90;;;;;;5072801;28;20085;-41
2023/01/03 10:07:51;;;;;;;36.83;14.40;;;7.40;99.90;;;;;;5072994;28;20029;-41
2023/01/03 10:10:38;;;;;;;40.20;13.43;;;7.50;99.90;;;;;;5056281;28;20113;-39
2023/01/03 10:13:11;;;;;;;32.83;14.10;;;7.60;99.90;;;;;;5073047;28;20028;-43
2023/01/03 10:15:44;;;;;;;37.22;13.75;;;7.60;99.90;;;;;;5072368;28;20024;-38
2023/01/03 10:18:42;;;;;;;38.15;15.23;;;7.60;99.90;;;;;;5071824;28;20036;-46
2023/01/03 10:21:30;;;;;;;37.95;13.63;;;7.70;99.90;;;;;;5026641;28;20048;-41
2023/01/03 10:23:56;;;;;;;32.13;14.10;;;7.70;99.90;;;;;;5073635;28;20029;-41
2023/01/03 10:26:25;;;;;;;34.10;13.13;;;7.80;99.90;;;;;;5071559;28;20082;-40
2023/01/03 10:28:51;;;;;;;33.97;12.32;;;7.80;99.90;;;;;;5073570;28;20133;-40
2023/01/03 10:31:25;;;;;;;33.97;12.10;;;7.80;99.90;;;;;;5072481;28;20078;-41
2023/01/03 10:33:51;;;;;;;25.70;12.50;;;7.80;99.90;;;;;;5073689;28;20499;-39
2023/01/03 10:36:19;;;;;;;29.27;13.43;;;7.80;99.90;;;;;;5072171;28;20028;-40
2023/01/03 10:38:45;;;;;;;;;;;7.80;99.90;;;;;;5069141;28;20439;-40
2023/01/03 10:41:21;;;;;;;29.42;12.60;;;7.80;99.90;;;;;;5069945;28;19942;-41
2023/01/03 10:44:24;;;;;;;33.22;12.45;;;7.90;99.90;;;;;;5071098;28;20033;-40
2023/01/03 10:46:52;;;;;;;31.42;11.35;;;7.90;99.90;;;;;;5061817;28;20037;-50
2023/01/03 10:49:21;;;;;;;30.05;12.32;;;7.90;99.90;;;;;;5072366;28;20072;-41
2023/01/03 10:51:51;;;;;;;37.78;11.90;;;7.90;99.90;;;;;;5071300;28;20392;-34
2023/01/03 10:54:17;;;;;;;33.58;12.88;;;8.00;99.90;;;;;;5070830;28;20029;-41
2023/01/03 10:56:44;;;;;;;34.60;12.77;;;8.10;99.90;;;;;;5071247;28;20096;-39
2023/01/03 10:59:21;;;;;;;31.13;11.15;;;8.10;99.90;;;;;;5071280;28;20028;-40
2023/01/03 11:01:56;;;;;;;30.63;13.30;;;8.10;99.90;;;;;;5068929;28;20021;-43
2023/01/03 11:04:22;;;;;;;33.13;12.75;;;8.20;99.90;;;;;;5071160;28;20048;-39
2023/01/03 11:07:12;;;;;;;36.22;12.75;;;8.20;99.90;;;;;;5070559;28;20439;-40
2023/01/03 11:09:51;;;;;;;33.03;12.45;;;8.30;99.90;;;;;;5071233;28;20534;-41
2023/01/03 11:12:36;;;;;;;26.40;12.52;;;8.30;99.90;;;;;;5069288;28;20071;-42
2023/01/03 11:15:13;;;;;;;32.25;11.90;;;8.30;99.90;;;;;;5068073;28;20571;-42
2023/01/03 11:17:59;;;;;;;33.42;13.50;;;8.40;99.90;;;;;;5070892;28;20035;-42
2023/01/03 11:20:41;;;;;;;26.38;11.60;;;8.50;99.90;;;;;;5072623;28;20380;-42
2023/01/03 11:23:42;;;;;;;27.20;11.55;;;8.50;99.90;;;;;;5071827;28;20045;-42
2023/01/03 11:26:36;;;;;;;34.72;11.00;;;8.60;99.90;;;;;;5073169;28;20476;-42
2023/01/03 11:29:05;;;;;;;28.90;10.75;;;8.60;99.90;;;;;;5070842;28;20085;-43
2023/01/03 11:32:04;;;;;;;24.70;12.18;;;8.70;99.90;;;;;;5065392;28;20037;-40
2023/01/03 11:34:48;;;;;;;27.63;10.52;;;8.70;99.90;;;;;;5040524;28;20539;-42
2023/01/03 11:37:43;;;;;;;24.13;10.50;;;8.60;99.90;;;;;;5074424;28;20033;-44
2023/01/03 11:40:24;;;;;;;23.85;10.90;;;8.70;99.90;;;;;;5070248;28;20357;-42
2023/01/03 11:43:24;;;;;;;23.90;10.32;;;8.60;99.90;;;;;;5071948;28;20024;-42
2023/01/03 11:46:08;;;;;;;24.65;10.48;;;8.60;99.90;;;;;;5066268;28;20051;-47
2023/01/03 11:49:08;;;;;;;25.35;10.93;;;8.60;99.90;;;;;;5070193;28;20029;-41
2023/01/03 11:52:12;;;;;;;25.95;11.57;;;8.70;99.90;;;;;;5070899;28;20033;-33
2023/01/03 11:54:43;;;;;;;22.45;11.48;;;8.70;99.90;;;;;;5075082;28;20067;-37
2023/01/03 11:57:41;;;;;;;42.08;12.82;;;8.70;99.90;;;;;;5072436;28;20035;-34
2023/01/03 12:00:21;;;;;;;;;;;8.70;99.90;;;;;;5069809;28;20060;-40
2023/01/03 12:03:10;;;;;;;30.52;12.40;;;8.70;99.90;;;;;;5073001;28;20386;-32
2023/01/03 12:06:04;;;;;;;27.52;10.95;;;8.70;99.90;;;;;;5076363;28;20392;-38
2023/01/03 12:08:44;;;;;;;22.08;10.85;;;8.80;99.90;;;;;;5074739;28;20478;-41
2023/01/03 12:11:54;;;;;;;24.73;11.20;;;8.80;99.90;;;;;;5071518;28;20033;-58
2023/01/03 12:14:36;;;;;;;32.83;11.75;;;8.90;99.90;;;;;;5062268;28;20037;-36
2023/01/03 12:17:21;;;;;;;23.27;12.23;;;8.90;99.90;;;;;;5074664;28;20035;-37
2023/01/03 12:20:09;;;;;;;24.17;10.32;;;9.00;99.90;;;;;;5073105;28;20024;-36
2023/01/03 12:23:18;;;;;;;25.85;10.55;;;9.00;99.90;;;;;;5081886;28;20070;-43
2023/01/03 12:25:50;;;;;;;22.63;11.32;;;8.90;99.90;;;;;;5075724;28;20388;-43
2023/01/03 12:28:48;;;;;;;25.13;10.93;;;9.00;99.90;;;;;;5073208;28;20472;-37
2023/01/03 12:31:16;;;;;;;;;;;9.00;99.90;;;;;;5059928;28;20033;-47
2023/01/03 12:33:49;;;;;;;17.90;9.88;;;9.00;99.90;;;;;;5071965;28;19916;-42
2023/01/03 12:36:47;;;;;;;22.80;9.63;;;9.00;99.90;;;;;;5069469;28;20070;-43
2023/01/03 12:39:48;;;;;;;20.20;10.13;;;9.10;99.90;;;;;;5069375;28;20353;-42
2023/01/03 12:42:30;;;;;;;19.33;9.98;;;9.20;99.90;;;;;;5068675;28;20501;-41
2023/01/03 12:45:27;;;;;;;21.88;9.65;;;9.20;99.90;;;;;;5067065;28;20025;-41
2023/01/03 12:48:12;;;;;;;17.37;10.27;;;9.30;99.90;;;;;;5070619;28;20476;-47
2023/01/03 12:50:46;;;;;;;18.52;8.23;;;9.40;99.90;;;;;;5073812;28;20468;-42
2023/01/03 12:53:24;;;;;;;18.05;8.23;;;9.40;99.90;;;;;;5072228;28;20029;-40
2023/01/03 12:56:10;;;;;;;16.13;7.90;;;9.30;99.90;;;;;;5074682;28;20032;-43
2023/01/03 12:58:53;;;;;;;17.08;7.80;;;9.30;99.90;;;;;;5072637;28;20145;-43
2023/01/03 13:01:26;;;;;;;14.43;7.32;;;9.30;99.90;;;;;;5066585;28;20032;-44
2023/01/03 13:03:56;;;;;;;13.57;8.07;;;9.30;99.90;;;;;;5075232;28;20032;-44
2023/01/03 13:06:28;;;;;;;15.18;7.28;;;9.30;99.90;;;;;;5074182;28;20040;-42
2023/01/03 13:09:03;;;;;;;11.40;6.70;;;9.20;99.90;;;;;;5073012;28;20499;-42
2023/01/03 13:11:52;;;;;;;10.55;6.45;;;9.30;99.90;;;;;;5055820;28;20029;-41
2023/01/03 13:14:19;;;;;;;14.40;6.13;;;9.20;99.90;;;;;;5063582;28;20143;-44
2023/01/03 13:16:51;;;;;;;12.13;5.18;;;9.30;99.90;;;;;;5072760;28;20519;-42
2023/01/03 13:19:22;;;;;;;15.15;6.40;;;9.30;99.90;;;;;;5072825;28;20484;-40
2023/01/03 13:21:53;;;;;;;9.70;5.40;;;9.40;99.90;;;;;;5072283;28;20048;-41
2023/01/03 13:24:40;;;;;;;15.10;5.30;;;9.50;99.90;;;;;;5071969;28;20029;-41
2023/01/03 13:27:19;;;;;;;11.43;4.80;;;9.60;99.90;;;;;;5072999;28;20036;-42
2023/01/03 13:29:47;;;;;;;11.65;5.03;;;9.60;99.90;;;;;;5073755;28;20032;-44
2023/01/03 13:32:24;;;;;;;8.30;4.93;;;9.70;99.90;;;;;;5072691;28;20040;-40
2023/01/03 13:34:52;;;;;;;10.30;4.70;;;9.70;99.90;;;;;;5070960;28;20071;-43
2023/01/03 13:37:20;;;;;;;17.98;4.55;;;9.70;99.90;;;;;;5073122;28;20511;-34
2023/01/03 13:39:49;;;;;;;;;;;9.80;99.90;;;;;;5075233;28;20473;-45
2023/01/03 13:42:32;;;;;;;11.07;4.10;;;9.90;99.90;;;;;;5072664;28;19904;-42
2023/01/03 13:45:22;;;;;;;7.93;4.60;;;9.80;99.90;;;;;;5063729;28;20025;-41
2023/01/03 13:47:53;;;;;;;9.88;3.63;;;9.80;99.90;;;;;;5067006;28;20036;-43
2023/01/03 13:50:28;;;;;;;6.10;4.10;;;9.70;99.90;;;;;;5072553;28;20480;-40
2023/01/03 13:53:10;;;;;;;9.20;4.38;;;9.70;99.90;;;;;;5070833;28;20038;-43
2023/01/03 13:55:57;;;;;;;11.25;5.75;;;9.70;99.90;;;;;;5068465;28;20052;-42
2023/01/03 13:59:00;;;;;;;18.20;4.10;;;9.70;99.90;;;;;;5070369;28;20503;-41
2023/01/03 14:01:45;;;;;;;14.05;4.45;;;9.60;99.90;;;;;;5071750;28;20036;-75
2023/01/03 14:04:28;;;;;;;9.63;3.63;;;9.50;99.90;;;;;;5059153;28;20108;-44
2023/01/03 14:07:02;;;;;;;6.68;3.70;;;9.50;99.90;;;;;;5062802;28;20063;-42
2023/01/03 14:09:42;;;;;;;9.00;4.03;;;9.40;99.90;;;;;;5073170;28;20477;-44
2023/01/03 14:12:51;;;;;;;30.25;5.50;;;9.40;99.90;;;;;;5072550;28;20033;-43